Time;durP1;ratioP1;P1;durP2;ratioP2;P2;SDS_P1;SDS_P2;PMS_P1;PMS_P2;Temp;Humidity;BMP_temperature;BMP_pressure;BME280_temperature;BME280_humidity;BME280_pressure;Samples;Min_cycle;Max_cycle;Signal;HPM_P1;HPM_P2
2021/04/08 00:00:23;;;;;;;4.83;4.23;;;1.90;99.90;;;;;;5065141;28;20488;-81
2021/04/08 00:02:51;;;;;;;7.57;4.70;;;1.80;99.90;;;;;;5066709;28;20430;-81
2021/04/08 00:05:18;;;;;;;7.57;4.50;;;1.80;99.90;;;;;;5066037;28;20454;-81
2021/04/08 00:07:45;;;;;;;5.90;3.97;;;1.80;99.90;;;;;;5066410;28;20521;-81
2021/04/08 00:10:13;;;;;;;5.20;3.87;;;1.80;99.90;;;;;;5067557;28;20529;-80
2021/04/08 00:12:40;;;;;;;4.70;4.00;;;1.80;99.90;;;;;;5068806;28;20496;-80
2021/04/08 00:15:09;;;;;;;4.63;3.77;;;1.90;99.90;;;;;;5068256;28;20508;-81
2021/04/08 00:17:36;;;;;;;6.90;4.40;;;1.90;99.90;;;;;;5067557;28;20453;-80
2021/04/08 00:20:07;;;;;;;4.10;3.70;;;1.80;99.90;;;;;;5067082;28;20458;-81
2021/04/08 00:22:33;;;;;;;5.90;4.40;;;1.80;99.90;;;;;;5068076;28;20469;-81
2021/04/08 00:25:01;;;;;;;6.90;4.20;;;1.80;99.90;;;;;;5068279;28;21012;-81
2021/04/08 00:27:27;;;;;;;7.93;4.53;;;1.90;99.90;;;;;;5068411;28;20462;-81
2021/04/08 00:29:55;;;;;;;7.93;4.20;;;1.80;99.90;;;;;;5068933;28;20474;-81
2021/04/08 00:32:22;;;;;;;4.70;3.67;;;1.80;99.90;;;;;;5068887;28;20482;-81
2021/04/08 00:34:49;;;;;;;4.80;4.40;;;1.80;99.90;;;;;;5068538;28;20535;-82
2021/04/08 00:37:15;;;;;;;6.03;4.37;;;1.80;99.90;;;;;;5068028;28;20446;-83
2021/04/08 00:39:42;;;;;;;10.90;4.37;;;1.80;99.90;;;;;;5069233;28;20444;-82
2021/04/08 00:42:10;;;;;;;5.23;4.27;;;1.80;99.90;;;;;;5068113;28;20463;-82
2021/04/08 00:44:36;;;;;;;4.57;3.70;;;1.80;99.90;;;;;;5067268;28;20449;-82
2021/04/08 00:47:03;;;;;;;6.43;4.40;;;1.70;99.90;;;;;;5067743;28;20434;-82
2021/04/08 00:49:29;;;;;;;4.80;4.33;;;1.70;99.90;;;;;;5067556;28;20434;-83
2021/04/08 00:51:56;;;;;;;6.30;4.67;;;1.70;99.90;;;;;;5068232;28;20781;-82
2021/04/08 00:54:23;;;;;;;7.23;5.17;;;1.70;99.90;;;;;;5067372;28;20462;-82
2021/04/08 00:56:50;;;;;;;6.40;4.10;;;1.70;99.90;;;;;;5067585;28;20579;-82
2021/04/08 00:59:19;;;;;;;6.47;4.53;;;1.70;99.90;;;;;;5067787;28;20505;-82
2021/04/08 01:01:46;;;;;;;5.63;4.80;;;1.60;99.90;;;;;;5067601;28;20477;-82
2021/04/08 01:04:14;;;;;;;6.13;4.50;;;1.70;99.90;;;;;;5067788;28;20417;-82
2021/04/08 01:06:41;;;;;;;4.80;4.07;;;1.70;99.90;;;;;;5066519;28;20506;-82
2021/04/08 01:09:07;;;;;;;5.03;4.43;;;1.60;99.90;;;;;;5067829;28;20426;-82
2021/04/08 01:11:34;;;;;;;5.50;4.30;;;1.60;99.90;;;;;;5067791;28;20457;-82
2021/04/08 01:14:00;;;;;;;8.17;4.70;;;1.70;99.90;;;;;;5066967;28;20564;-81
2021/04/08 01:16:35;;;;;;;6.50;4.50;;;1.70;99.90;;;;;;5066254;28;20478;-81
2021/04/08 01:19:15;;;;;;;7.43;4.93;;;1.60;99.90;;;;;;5066522;28;20472;-81
2021/04/08 01:21:46;;;;;;;7.13;4.90;;;1.70;99.90;;;;;;5066961;28;20454;-81
2021/04/08 01:24:48;;;;;;;7.83;4.90;;;1.70;99.90;;;;;;5066699;28;20410;-81
2021/04/08 01:27:33;;;;;;;6.70;4.53;;;1.70;99.90;;;;;;5067691;28;20449;-81
2021/04/08 01:30:24;;;;;;;6.90;4.53;;;1.70;99.90;;;;;;5068472;28;20469;-81
2021/04/08 01:32:56;;;;;;;7.60;4.20;;;1.70;99.90;;;;;;5068586;28;20484;-81
2021/04/08 01:35:27;;;;;;;6.17;4.37;;;1.70;99.90;;;;;;5067816;28;20592;-81
2021/04/08 01:38:05;;;;;;;5.30;4.00;;;1.70;99.90;;;;;;5067867;28;20525;-82
2021/04/08 01:40:33;;;;;;;5.90;4.83;;;1.70;99.90;;;;;;5067812;28;20477;-81
2021/04/08 01:43:02;;;;;;;6.93;5.07;;;1.70;99.90;;;;;;5067672;28;20517;-82
2021/04/08 01:45:30;;;;;;;6.70;4.67;;;1.70;99.90;;;;;;5068320;28;21042;-82
2021/04/08 01:47:59;;;;;;;6.30;4.80;;;1.70;99.90;;;;;;5068291;28;20454;-82
2021/04/08 01:50:27;;;;;;;5.60;4.40;;;1.80;99.90;;;;;;5068270;28;20545;-82
2021/04/08 01:52:56;;;;;;;6.63;4.60;;;1.80;99.90;;;;;;5068724;28;20504;-82
2021/04/08 01:55:24;;;;;;;7.43;5.07;;;1.80;99.90;;;;;;5068017;28;20507;-82
2021/04/08 01:57:51;;;;;;;5.57;4.10;;;1.80;99.90;;;;;;5067748;28;20430;-83
2021/04/08 02:00:21;;;;;;;6.23;4.77;;;1.80;99.90;;;;;;5067901;28;20480;-82
2021/04/08 02:02:49;;;;;;;5.83;4.17;;;1.90;99.90;;;;;;5068280;28;20437;-82
2021/04/08 02:05:18;;;;;;;6.33;3.70;;;1.90;99.90;;;;;;5069097;28;20438;-82
2021/04/08 02:07:46;;;;;;;5.50;3.73;;;1.90;99.90;;;;;;5068887;28;20450;-82
2021/04/08 02:10:15;;;;;;;6.27;4.80;;;1.90;99.90;;;;;;5069197;28;20479;-81
2021/04/08 02:12:46;;;;;;;8.50;4.10;;;1.90;99.90;;;;;;5068761;28;20470;-82
2021/04/08 02:15:15;;;;;;;4.60;4.13;;;1.90;99.90;;;;;;5067876;28;20500;-81
2021/04/08 02:17:45;;;;;;;4.73;3.37;;;1.90;99.90;;;;;;5068659;28;20468;-82
2021/04/08 02:20:15;;;;;;;9.43;3.73;;;1.90;99.90;;;;;;5066104;28;20454;-81
2021/04/08 02:22:44;;;;;;;7.00;3.90;;;1.90;99.90;;;;;;5069193;28;20449;-81
2021/04/08 02:25:13;;;;;;;4.73;3.40;;;1.90;99.90;;;;;;5071722;28;20449;-81
2021/04/08 02:27:40;;;;;;;4.47;3.03;;;2.00;99.90;;;;;;5071277;28;20434;-82
2021/04/08 02:30:09;;;;;;;4.50;3.10;;;2.00;99.90;;;;;;5070988;28;20488;-82
2021/04/08 02:32:37;;;;;;;5.80;4.10;;;2.00;99.90;;;;;;5070941;28;20557;-81
2021/04/08 02:35:07;;;;;;;7.13;4.00;;;2.10;99.90;;;;;;5071286;28;20461;-81
2021/04/08 02:37:34;;;;;;;4.90;3.40;;;2.00;99.90;;;;;;5069742;28;20450;-81
2021/04/08 02:40:01;;;;;;;3.40;3.10;;;2.00;99.90;;;;;;5069173;28;20527;-81
2021/04/08 02:42:28;;;;;;;4.93;3.70;;;2.00;99.90;;;;;;5069528;28;20492;-81
2021/04/08 02:44:54;;;;;;;3.33;3.00;;;2.00;99.90;;;;;;5070219;28;20457;-81
2021/04/08 02:47:21;;;;;;;5.30;3.47;;;2.00;99.90;;;;;;5069466;28;20449;-81
2021/04/08 02:49:47;;;;;;;6.47;3.10;;;2.00;99.90;;;;;;5068483;28;20994;-81
2021/04/08 02:52:18;;;;;;;3.60;3.20;;;1.90;99.90;;;;;;5068394;28;20477;-81
2021/04/08 02:54:48;;;;;;;4.47;3.00;;;1.90;99.90;;;;;;5069318;28;20457;-81
2021/04/08 02:57:21;;;;;;;4.03;2.60;;;1.90;99.90;;;;;;5069147;28;20812;-81
2021/04/08 02:59:52;;;;;;;3.33;2.57;;;1.90;99.90;;;;;;5071706;28;20469;-81
2021/04/08 03:02:22;;;;;;;3.67;2.87;;;2.00;99.90;;;;;;5071618;28;20433;-82
2021/04/08 03:04:53;;;;;;;3.57;2.80;;;2.00;99.90;;;;;;5072007;28;20438;-81
2021/04/08 03:07:23;;;;;;;2.40;2.20;;;1.90;99.90;;;;;;5071117;28;20812;-82
2021/04/08 03:09:53;;;;;;;2.47;2.23;;;1.90;99.90;;;;;;5071534;28;20453;-82
2021/04/08 03:12:22;;;;;;;4.43;2.70;;;1.80;99.90;;;;;;5071133;28;20568;-82
2021/04/08 03:14:52;;;;;;;2.43;2.20;;;1.90;99.90;;;;;;5069769;28;20462;-81
2021/04/08 03:17:23;;;;;;;3.33;2.33;;;1.90;99.90;;;;;;5069521;28;20434;-81
2021/04/08 03:19:52;;;;;;;2.77;2.20;;;1.90;99.90;;;;;;5069897;28;20490;-81
2021/04/08 03:22:20;;;;;;;4.70;2.23;;;1.90;99.90;;;;;;5069896;28;20509;-81
2021/04/08 03:24:47;;;;;;;2.40;2.20;;;1.80;99.90;;;;;;5069740;28;20540;-81
2021/04/08 03:27:16;;;;;;;3.63;1.90;;;1.90;99.90;;;;;;5070098;28;20476;-81
2021/04/08 03:29:44;;;;;;;3.03;2.03;;;1.90;99.90;;;;;;5070363;28;20928;-81
2021/04/08 03:32:11;;;;;;;2.70;2.00;;;1.90;99.90;;;;;;5069443;28;20454;-81
2021/04/08 03:34:40;;;;;;;2.07;1.87;;;1.80;99.90;;;;;;5068899;28;20454;-81
2021/04/08 03:37:07;;;;;;;3.10;2.10;;;1.80;99.90;;;;;;5070320;28;20456;-81
2021/04/08 03:39:35;;;;;;;2.60;1.67;;;1.80;99.90;;;;;;5070262;28;20457;-82
2021/04/08 03:42:04;;;;;;;2.20;1.83;;;1.80;99.90;;;;;;5071367;28;20533;-81
2021/04/08 03:44:33;;;;;;;3.80;2.70;;;1.80;99.90;;;;;;5071229;28;20488;-81
2021/04/08 03:47:04;;;;;;;2.20;1.70;;;1.80;99.90;;;;;;5071149;28;20433;-81
2021/04/08 03:49:32;;;;;;;1.80;1.70;;;1.90;99.90;;;;;;5071565;28;20450;-81
2021/04/08 03:52:00;;;;;;;2.37;2.17;;;1.90;99.90;;;;;;5070602;28;20477;-81
2021/04/08 03:54:28;;;;;;;2.17;1.70;;;1.80;99.90;;;;;;5070678;28;20442;-81
2021/04/08 03:56:57;;;;;;;2.07;1.73;;;1.80;99.90;;;;;;5070700;28;20834;-82
2021/04/08 03:59:24;;;;;;;3.20;2.33;;;1.80;99.90;;;;;;5071102;28;20445;-81
2021/04/08 04:01:52;;;;;;;4.30;2.00;;;1.80;99.90;;;;;;5071095;28;20472;-81
2021/04/08 04:04:20;;;;;;;1.77;1.63;;;1.90;99.90;;;;;;5070124;28;20469;-81
2021/04/08 04:06:51;;;;;;;2.10;1.90;;;1.90;99.90;;;;;;5070924;28;20862;-82
2021/04/08 04:09:19;;;;;;;2.20;2.00;;;1.80;99.90;;;;;;5071446;28;20446;-81
2021/04/08 04:11:49;;;;;;;4.60;2.53;;;1.80;99.90;;;;;;5070361;28;20489;-81
2021/04/08 04:14:29;;;;;;;4.20;2.37;;;1.80;99.90;;;;;;5071072;28;20489;-81
2021/04/08 04:16:57;;;;;;;4.33;1.67;;;1.80;99.90;;;;;;5070813;28;20479;-81
2021/04/08 04:19:25;;;;;;;2.30;2.10;;;1.80;99.90;;;;;;5069867;28;20446;-81
2021/04/08 04:21:52;;;;;;;9.67;1.80;;;1.80;99.90;;;;;;5069794;28;20540;-80
2021/04/08 04:24:19;;;;;;;1.50;1.40;;;1.80;99.90;;;;;;5069944;28;20450;-80
2021/04/08 04:26:45;;;;;;;1.93;1.80;;;1.80;99.90;;;;;;5068684;28;20570;-81
2021/04/08 04:29:12;;;;;;;4.30;2.03;;;1.80;99.90;;;;;;5067759;28;20430;-81
2021/04/08 04:31:39;;;;;;;5.60;2.50;;;1.80;99.90;;;;;;5068421;28;20465;-80
2021/04/08 04:34:06;;;;;;;2.23;2.03;;;1.80;99.90;;;;;;5066317;28;20476;-80
2021/04/08 04:36:34;;;;;;;2.70;1.80;;;1.80;99.90;;;;;;5067970;28;20444;-81
2021/04/08 04:39:01;;;;;;;2.20;1.80;;;1.80;99.90;;;;;;5067980;28;20434;-80
2021/04/08 04:41:28;;;;;;;3.33;1.70;;;1.80;99.90;;;;;;5067680;28;20478;-80
2021/04/08 04:43:55;;;;;;;5.83;2.13;;;1.80;99.90;;;;;;5066900;28;20434;-81
2021/04/08 04:46:25;;;;;;;1.83;1.50;;;1.70;99.90;;;;;;5066125;28;20465;-81
2021/04/08 04:48:51;;;;;;;1.83;1.53;;;1.70;99.90;;;;;;5066411;28;20407;-81
2021/04/08 04:51:18;;;;;;;1.93;1.80;;;1.70;99.90;;;;;;5066987;28;20493;-82
2021/04/08 04:53:45;;;;;;;4.30;1.80;;;1.70;99.90;;;;;;5065273;28;20500;-82
2021/04/08 04:56:11;;;;;;;2.30;1.40;;;1.80;99.90;;;;;;5065918;28;20452;-81
2021/04/08 04:58:38;;;;;;;2.30;1.50;;;1.80;99.90;;;;;;5065344;28;20449;-82
2021/04/08 05:01:04;;;;;;;2.60;1.40;;;1.70;99.90;;;;;;5066299;28;20466;-81
2021/04/08 05:03:30;;;;;;;2.07;1.93;;;1.80;99.90;;;;;;5064551;28;20514;-81
2021/04/08 05:05:57;;;;;;;1.87;1.70;;;1.80;99.90;;;;;;5064543;28;20449;-81
2021/04/08 05:08:23;;;;;;;2.07;1.90;;;1.80;99.90;;;;;;5064636;28;20507;-81
2021/04/08 05:10:52;;;;;;;1.67;1.57;;;1.80;99.90;;;;;;5064412;28;20478;-81
2021/04/08 05:13:19;;;;;;;2.03;1.70;;;1.80;99.90;;;;;;5063911;28;20472;-81
2021/04/08 05:15:45;;;;;;;2.57;2.10;;;1.80;99.90;;;;;;5063521;28;20488;-81
2021/04/08 05:18:12;;;;;;;1.83;1.73;;;1.80;99.90;;;;;;5063996;28;20533;-81
2021/04/08 05:20:38;;;;;;;4.93;1.80;;;1.80;99.90;;;;;;5063971;28;20508;-81
2021/04/08 05:23:04;;;;;;;2.43;1.90;;;1.80;99.90;;;;;;5064309;28;20485;-81
2021/04/08 05:25:31;;;;;;;1.83;1.73;;;1.80;99.90;;;;;;5064180;28;20496;-81
2021/04/08 05:27:58;;;;;;;3.10;2.00;;;1.90;99.90;;;;;;5064962;28;20453;-81
2021/04/08 05:30:25;;;;;;;3.77;2.10;;;1.90;99.90;;;;;;5064253;28;20470;-81
2021/04/08 05:32:52;;;;;;;2.53;1.50;;;1.90;99.90;;;;;;5064352;28;20992;-81
2021/04/08 05:35:19;;;;;;;3.87;1.80;;;2.00;99.90;;;;;;5064179;28;20422;-81
2021/04/08 05:37:45;;;;;;;6.80;1.43;;;2.00;99.90;;;;;;5064317;28;20450;-81
2021/04/08 05:40:12;;;;;;;4.10;2.33;;;2.00;99.90;;;;;;5065255;28;20518;-81
2021/04/08 05:42:42;;;;;;;3.83;1.80;;;2.10;99.90;;;;;;5066153;28;20471;-81
2021/04/08 05:45:11;;;;;;;2.50;1.50;;;2.10;99.90;;;;;;5066178;28;20508;-81
2021/04/08 05:47:37;;;;;;;1.70;1.60;;;2.20;99.90;;;;;;5067288;28;20524;-81
2021/04/08 05:50:05;;;;;;;2.20;1.60;;;2.20;99.90;;;;;;5067136;28;20496;-81
2021/04/08 05:52:32;;;;;;;2.27;1.60;;;2.30;99.90;;;;;;5066719;28;20473;-81
2021/04/08 05:54:58;;;;;;;3.37;2.17;;;2.40;99.90;;;;;;5066151;28;20928;-81
2021/04/08 05:57:25;;;;;;;3.47;1.90;;;2.40;99.90;;;;;;5069689;28;20454;-81
2021/04/08 05:59:51;;;;;;;2.50;1.70;;;2.50;99.90;;;;;;5072665;28;20910;-82
2021/04/08 06:02:19;;;;;;;6.63;1.67;;;2.60;99.90;;;;;;5072429;28;20458;-82
2021/04/08 06:04:45;;;;;;;3.03;2.13;;;2.70;99.90;;;;;;5071479;28;20941;-82
2021/04/08 06:07:12;;;;;;;2.00;1.80;;;2.80;99.90;;;;;;5071760;28;20449;-82
2021/04/08 06:09:38;;;;;;;1.70;1.60;;;3.00;99.90;;;;;;5069586;28;20455;-82
2021/04/08 06:12:06;;;;;;;2.23;1.90;;;3.00;99.90;;;;;;5071091;28;20450;-82
2021/04/08 06:14:33;;;;;;;4.80;1.77;;;3.10;99.90;;;;;;5069368;28;20568;-80
2021/04/08 06:17:06;;;;;;;5.33;2.00;;;3.20;99.90;;;;;;5065206;28;20528;-80
2021/04/08 06:19:33;;;;;;;3.07;2.10;;;3.40;99.90;;;;;;5065345;28;20814;-80
2021/04/08 06:22:00;;;;;;;3.03;1.43;;;3.40;99.90;;;;;;5064129;28;20433;-79
2021/04/08 06:24:26;;;;;;;2.50;1.87;;;3.50;99.90;;;;;;5063278;28;20448;-80
2021/04/08 06:26:53;;;;;;;2.60;1.70;;;3.60;99.90;;;;;;5065216;28;20449;-80
2021/04/08 06:29:19;;;;;;;2.30;1.90;;;3.70;99.90;;;;;;5066836;28;20450;-81
2021/04/08 06:31:45;;;;;;;3.23;1.60;;;4.00;99.90;;;;;;5067841;28;20497;-81
2021/04/08 06:34:12;;;;;;;4.50;2.10;;;4.00;99.90;;;;;;5068423;28;20473;-82
2021/04/08 06:36:39;;;;;;;2.30;1.73;;;4.10;99.90;;;;;;5066940;28;20944;-83
2021/04/08 06:39:06;;;;;;;7.13;1.97;;;4.20;99.90;;;;;;5066427;28;20929;-83
2021/04/08 06:41:37;;;;;;;1.50;1.40;;;4.40;99.90;;;;;;5067725;28;20501;-82
2021/04/08 06:44:05;;;;;;;2.73;1.50;;;4.40;99.90;;;;;;5065989;28;20446;-85
2021/04/08 06:46:37;;;;;;;1.40;1.30;;;4.60;99.90;;;;;;5068351;28;20462;-80
2021/04/08 06:49:11;;;;;;;2.60;1.80;;;4.60;99.90;;;;;;5069664;28;20427;-81
2021/04/08 06:51:47;;;;;;;7.43;2.00;;;4.60;99.90;;;;;;5074053;28;20501;-82
2021/04/08 06:54:22;;;;;;;3.23;2.00;;;4.80;99.90;;;;;;5078980;28;20465;-82
2021/04/08 06:56:51;;;;;;;2.13;1.93;;;4.90;99.90;;;;;;5079221;28;20445;-80
2021/04/08 06:59:24;;;;;;;2.67;1.93;;;5.20;99.90;;;;;;5076915;28;20411;-79
2021/04/08 07:07:52;;;;;;;3.57;2.30;;;6.10;99.90;;;;;;5053640;28;20438;-84
2021/04/08 07:13:40;;;;;;;2.60;2.27;;;6.10;99.90;;;;;;4984564;28;21015;-82
2021/04/08 07:16:09;;;;;;;2.70;2.23;;;6.10;99.90;;;;;;5054137;28;20489;-80
2021/04/08 07:18:35;;;;;;;3.67;2.47;;;6.10;99.90;;;;;;5058282;28;20450;-82
2021/04/08 07:21:02;;;;;;;2.27;1.87;;;6.20;99.90;;;;;;5055808;28;20484;-82
2021/04/08 07:23:29;;;;;;;3.17;2.20;;;6.30;99.90;;;;;;5055462;28;20458;-84
2021/04/08 07:26:07;;;;;;;2.90;2.63;;;6.20;99.90;;;;;;5055611;28;20548;-85
2021/04/08 07:28:59;;;;;;;3.10;2.37;;;6.10;98.30;;;;;;5060569;28;20491;-81
2021/04/08 07:31:43;;;;;;;4.50;2.33;;;5.90;97.00;;;;;;5064607;28;20470;-83
2021/04/08 07:34:20;;;;;;;4.20;3.03;;;6.00;98.60;;;;;;5063703;28;20464;-82
2021/04/08 07:43:58;;;;;;;3.20;2.90;;;6.20;98.30;;;;;;4970930;28;20433;-86
2021/04/08 07:46:53;;;;;;;4.83;3.10;;;6.50;97.60;;;;;;5055500;28;20513;-87
2021/04/08 07:49:28;;;;;;;3.80;2.83;;;6.60;95.90;;;;;;5054987;28;20861;-84
2021/04/08 07:51:55;;;;;;;5.60;2.60;;;6.70;96.50;;;;;;5054889;28;20469;-85
2021/04/08 07:54:22;;;;;;;4.07;3.17;;;6.70;95.20;;;;;;5054497;28;20842;-85
2021/04/08 07:56:48;;;;;;;6.10;3.10;;;6.70;94.50;;;;;;5054563;28;20956;-85
2021/04/08 07:59:26;;;;;;;5.83;3.37;;;6.80;95.00;;;;;;5054912;28;20450;-87
2021/04/08 08:02:01;;;;;;;3.93;3.50;;;7.00;94.40;;;;;;5055075;28;20476;-85
2021/04/08 08:04:29;;;;;;;4.50;3.40;;;7.20;93.20;;;;;;5054830;28;20430;-85
2021/04/08 08:06:56;;;;;;;3.57;3.27;;;7.20;92.00;;;;;;5054807;28;20480;-85
2021/04/08 08:09:27;;;;;;;3.00;2.70;;;7.30;91.90;;;;;;5054618;28;20462;-85
2021/04/08 08:11:55;;;;;;;3.03;2.70;;;7.40;89.80;;;;;;5054503;28;20469;-85
2021/04/08 08:14:33;;;;;;;5.17;3.50;;;7.90;91.80;;;;;;5054514;28;20446;-84
2021/04/08 08:17:05;;;;;;;3.63;2.60;;;8.70;88.70;;;;;;5054313;28;20433;-84
2021/04/08 08:19:32;;;;;;;2.83;2.63;;;8.90;82.20;;;;;;5054194;28;20449;-83
2021/04/08 08:21:59;;;;;;;2.60;2.40;;;8.80;80.50;;;;;;5059228;28;20465;-84
2021/04/08 08:24:26;;;;;;;4.80;2.60;;;9.00;81.60;;;;;;5054302;28;20492;-85
2021/04/08 08:26:53;;;;;;;3.40;2.60;;;9.20;80.30;;;;;;5054257;28;20442;-85
2021/04/08 08:29:21;;;;;;;3.73;2.43;;;9.10;78.40;;;;;;5054356;28;20457;-86
2021/04/08 08:31:49;;;;;;;2.20;2.03;;;9.10;77.50;;;;;;5054382;28;20481;-85
2021/04/08 08:34:18;;;;;;;2.60;1.73;;;8.80;75.00;;;;;;5054314;28;20470;-85
2021/04/08 08:36:47;;;;;;;2.80;2.10;;;9.00;77.60;;;;;;5053903;28;20940;-85
2021/04/08 08:39:15;;;;;;;4.50;2.10;;;9.30;76.00;;;;;;5054240;28;20449;-85
2021/04/08 08:41:42;;;;;;;5.03;2.60;;;9.70;76.00;;;;;;5054012;28;20496;-85
2021/04/08 08:44:11;;;;;;;4.97;2.37;;;9.60;70.50;;;;;;5053901;28;20504;-84
2021/04/08 08:46:43;;;;;;;4.50;2.80;;;9.70;71.70;;;;;;5053872;28;20458;-84
2021/04/08 08:49:13;;;;;;;3.03;2.70;;;10.20;68.70;;;;;;5053919;28;20457;-84
2021/04/08 08:51:39;;;;;;;4.07;2.60;;;10.80;66.90;;;;;;5053812;28;20500;-84
2021/04/08 08:54:06;;;;;;;2.60;2.40;;;11.90;61.90;;;;;;5053859;28;20480;-83
2021/04/08 08:56:35;;;;;;;3.30;3.00;;;12.90;61.60;;;;;;5053784;28;20441;-83
2021/04/08 08:59:01;;;;;;;4.30;2.23;;;14.20;56.60;;;;;;5054311;28;20458;-82
2021/04/08 09:01:28;;;;;;;2.50;2.30;;;14.80;51.40;;;;;;5053569;28;20473;-81
2021/04/08 09:03:56;;;;;;;2.87;2.63;;;14.90;49.90;;;;;;5053662;28;20458;-81
2021/04/08 09:06:23;;;;;;;2.40;2.20;;;15.80;50.40;;;;;;5053633;28;20430;-81
2021/04/08 09:08:54;;;;;;;4.07;2.07;;;16.60;47.30;;;;;;5053626;28;20421;-81
2021/04/08 09:11:27;;;;;;;2.00;1.90;;;17.80;44.00;;;;;;5053521;28;20465;-82
2021/04/08 09:13:55;;;;;;;2.20;2.10;;;18.40;40.70;;;;;;5054392;28;20422;-82
2021/04/08 09:16:21;;;;;;;2.30;2.20;;;17.80;40.70;;;;;;5053109;28;20477;-81
2021/04/08 09:19:01;;;;;;;2.73;2.30;;;16.80;41.00;;;;;;5053519;28;20441;-81
2021/04/08 09:21:42;;;;;;;2.97;2.70;;;15.30;42.50;;;;;;5053078;28;20470;-82
2021/04/08 09:24:13;;;;;;;2.17;2.07;;;13.90;45.20;;;;;;5053396;28;20995;-82
2021/04/08 09:26:42;;;;;;;2.70;2.50;;;12.80;47.50;;;;;;5053330;28;20441;-83
2021/04/08 09:29:10;;;;;;;3.03;2.77;;;11.70;48.20;;;;;;5053337;28;20464;-84
2021/04/08 09:31:36;;;;;;;2.63;2.00;;;10.70;50.20;;;;;;5052869;28;20474;-84
2021/04/08 09:34:03;;;;;;;2.50;2.30;;;10.00;52.20;;;;;;5053342;28;20427;-85
2021/04/08 09:36:42;;;;;;;2.10;2.00;;;9.50;54.10;;;;;;5052386;28;20442;-85
2021/04/08 09:39:28;;;;;;;4.23;2.50;;;8.90;55.30;;;;;;5053062;28;20449;-85
2021/04/08 09:42:05;;;;;;;3.73;2.30;;;8.70;55.70;;;;;;5053155;28;20559;-85
2021/04/08 09:44:31;;;;;;;2.53;1.97;;;8.40;57.10;;;;;;5053064;28;20477;-85
2021/04/08 09:46:59;;;;;;;2.97;2.40;;;8.30;58.60;;;;;;5053107;28;20441;-84
2021/04/08 09:49:50;;;;;;;3.47;2.20;;;8.50;59.00;;;;;;5052895;28;20449;-87
2021/04/08 09:52:18;;;;;;;3.80;2.80;;;9.00;58.80;;;;;;5047397;28;20453;-84
2021/04/08 09:54:51;;;;;;;2.40;2.20;;;9.50;56.20;;;;;;5053162;28;20497;-87
2021/04/08 09:57:37;;;;;;;2.93;2.10;;;9.90;56.60;;;;;;5052932;28;20885;-86
2021/04/08 10:00:07;;;;;;;2.07;1.77;;;10.20;55.80;;;;;;5052807;28;20472;-84
2021/04/08 10:02:33;;;;;;;2.40;2.20;;;10.50;54.60;;;;;;5046901;28;20569;-84
2021/04/08 10:05:11;;;;;;;2.67;2.17;;;10.50;53.30;;;;;;5046552;28;20446;-84
2021/04/08 10:07:51;;;;;;;2.60;2.40;;;10.50;52.80;;;;;;5053423;28;20449;-88
2021/04/08 10:10:18;;;;;;;3.23;2.50;;;10.20;52.70;;;;;;5052618;28;20469;-85
2021/04/08 10:12:44;;;;;;;2.93;2.67;;;10.00;54.00;;;;;;5052420;28;20422;-84
2021/04/08 10:15:16;;;;;;;2.30;2.10;;;9.90;55.80;;;;;;5052652;28;20482;-85
2021/04/08 10:17:43;;;;;;;3.97;2.57;;;9.90;57.00;;;;;;5054892;28;20457;-85
2021/04/08 10:20:11;;;;;;;2.73;2.53;;;9.80;57.50;;;;;;5053198;28;20469;-85
2021/04/08 10:22:42;;;;;;;2.30;2.13;;;9.60;56.70;;;;;;5052266;28;20430;-85
2021/04/08 10:25:11;;;;;;;2.33;1.97;;;9.40;57.50;;;;;;5052729;28;20517;-85
2021/04/08 10:27:38;;;;;;;2.70;2.20;;;9.20;56.70;;;;;;5052690;28;20838;-85
2021/04/08 10:30:16;;;;;;;2.50;2.30;;;9.30;56.60;;;;;;5052399;28;20457;-85
2021/04/08 10:32:44;;;;;;;2.60;2.30;;;9.50;56.70;;;;;;5052395;28;20912;-84
2021/04/08 10:35:31;;;;;;;2.57;2.37;;;9.70;55.90;;;;;;5052435;28;20446;-85
2021/04/08 10:38:02;;;;;;;4.20;2.57;;;10.00;54.70;;;;;;5050385;28;20450;-85
2021/04/08 10:40:29;;;;;;;2.50;2.10;;;10.30;54.90;;;;;;5052559;28;20470;-85
2021/04/08 10:43:11;;;;;;;4.73;2.73;;;10.30;54.20;;;;;;5052547;28;20983;-84
2021/04/08 10:45:38;;;;;;;8.20;2.80;;;10.50;52.80;;;;;;5054969;28;20511;-85
2021/04/08 10:48:07;;;;;;;2.87;2.50;;;10.30;52.50;;;;;;5055658;28;20433;-85
2021/04/08 10:50:33;;;;;;;3.00;2.63;;;9.90;54.30;;;;;;5054038;28;20457;-85
2021/04/08 10:53:00;;;;;;;2.50;2.00;;;9.50;53.90;;;;;;5056056;28;20441;-85
2021/04/08 10:55:27;;;;;;;3.47;2.57;;;9.20;55.50;;;;;;5055756;28;20411;-85
2021/04/08 10:57:55;;;;;;;3.17;2.10;;;9.00;55.30;;;;;;5055618;28;20426;-86
2021/04/08 11:00:23;;;;;;;4.20;2.33;;;8.90;56.10;;;;;;5055771;28;20474;-85
2021/04/08 11:02:49;;;;;;;2.03;1.90;;;8.90;56.50;;;;;;5055431;28;20929;-85
2021/04/08 11:05:18;;;;;;;2.33;2.23;;;9.40;56.90;;;;;;5055584;28;20442;-85
2021/04/08 11:07:46;;;;;;;2.77;2.13;;;9.90;55.60;;;;;;5055523;28;20488;-85
2021/04/08 11:10:14;;;;;;;2.60;2.40;;;9.90;55.70;;;;;;5055539;28;20469;-85
2021/04/08 11:12:41;;;;;;;2.23;2.07;;;10.00;55.00;;;;;;5055312;28;20425;-84
2021/04/08 11:15:10;;;;;;;3.07;2.23;;;10.10;55.40;;;;;;5055380;28;20481;-85
2021/04/08 11:17:43;;;;;;;2.50;2.30;;;10.20;55.40;;;;;;5055209;28;20784;-85
2021/04/08 11:20:12;;;;;;;2.87;1.90;;;10.50;56.20;;;;;;5055051;28;21049;-85
2021/04/08 11:22:43;;;;;;;1.83;1.73;;;10.50;53.90;;;;;;5055080;28;20462;-85
2021/04/08 11:25:11;;;;;;;3.93;2.10;;;10.50;55.60;;;;;;5051989;28;20957;-85
2021/04/08 11:27:40;;;;;;;3.93;2.27;;;10.40;54.10;;;;;;5052271;28;20846;-85
2021/04/08 11:30:08;;;;;;;3.40;2.20;;;10.30;54.70;;;;;;5054056;28;20821;-85
2021/04/08 11:32:44;;;;;;;2.40;2.20;;;10.30;53.30;;;;;;5055003;28;20433;-85
2021/04/08 11:35:23;;;;;;;2.80;2.13;;;9.90;54.80;;;;;;5055221;28;20480;-84
2021/04/08 11:37:50;;;;;;;2.53;1.80;;;10.10;54.70;;;;;;5055000;28;20414;-85
2021/04/08 11:40:21;;;;;;;3.37;2.20;;;10.10;54.00;;;;;;5054893;28;20449;-85
2021/04/08 11:42:47;;;;;;;2.10;1.90;;;10.40;52.20;;;;;;5054751;28;20446;-85
2021/04/08 11:45:23;;;;;;;3.97;2.10;;;10.50;51.10;;;;;;5054772;28;20536;-85
2021/04/08 11:48:01;;;;;;;1.73;1.63;;;10.60;50.90;;;;;;5054983;28;20438;-85
2021/04/08 11:50:29;;;;;;;2.03;1.93;;;10.70;51.00;;;;;;5054868;28;20473;-84
2021/04/08 11:53:07;;;;;;;1.87;1.70;;;11.00;51.00;;;;;;5054555;28;20783;-84
2021/04/08 11:55:40;;;;;;;1.93;1.60;;;11.10;50.40;;;;;;5053610;28;20460;-87
2021/04/08 11:58:07;;;;;;;1.80;1.70;;;11.30;51.00;;;;;;5054483;28;20433;-85
2021/04/08 12:00:36;;;;;;;3.03;2.50;;;11.30;52.20;;;;;;5054749;28;20831;-84
2021/04/08 12:03:15;;;;;;;3.37;2.27;;;11.30;52.30;;;;;;5054360;28;20410;-84
2021/04/08 12:05:42;;;;;;;5.83;2.30;;;11.60;51.10;;;;;;5054321;28;20434;-85
2021/04/08 12:08:08;;;;;;;3.43;1.63;;;11.50;50.80;;;;;;5054292;28;20415;-84
2021/04/08 12:10:35;;;;;;;2.07;1.87;;;11.50;50.70;;;;;;5054384;28;20473;-84
2021/04/08 12:13:04;;;;;;;2.23;1.90;;;11.30;50.50;;;;;;5054505;28;20430;-84
2021/04/08 12:15:37;;;;;;;2.10;1.90;;;11.10;49.10;;;;;;5058250;28;21015;-85
2021/04/08 12:18:16;;;;;;;2.17;2.07;;;10.70;49.50;;;;;;5055389;28;20438;-85
2021/04/08 12:20:43;;;;;;;1.80;1.60;;;10.70;50.20;;;;;;5054162;28;20470;-85
2021/04/08 12:23:11;;;;;;;2.07;1.87;;;10.80;49.90;;;;;;5054014;28;20912;-85
2021/04/08 12:25:49;;;;;;;2.67;2.47;;;10.70;49.10;;;;;;5054233;28;20433;-85
2021/04/08 12:28:16;;;;;;;2.27;2.07;;;10.60;50.40;;;;;;5054177;28;20438;-84
2021/04/08 12:30:57;;;;;;;4.03;2.27;;;10.50;50.90;;;;;;5054093;28;20476;-85
2021/04/08 12:33:25;;;;;;;1.67;1.57;;;10.40;50.50;;;;;;5053781;28;20438;-85
2021/04/08 12:35:52;;;;;;;1.73;1.63;;;10.30;50.60;;;;;;5589905;22;20486;-81
2021/04/08 12:38:18;;;;;;;6.30;2.37;;;10.10;49.80;;;;;;5033985;28;20450;-80
2021/04/08 12:40:44;;;;;;;2.73;2.20;;;10.20;49.70;;;;;;5033978;28;20473;-80
2021/04/08 12:43:11;;;;;;;4.63;2.37;;;10.10;49.30;;;;;;5034396;28;20470;-80
2021/04/08 12:45:38;;;;;;;2.33;2.13;;;10.10;51.00;;;;;;5034007;28;20431;-80
2021/04/08 12:48:06;;;;;;;3.47;2.17;;;10.20;50.00;;;;;;5033992;28;20435;-81
2021/04/08 12:50:33;;;;;;;2.30;2.20;;;10.10;49.80;;;;;;5033546;28;20528;-81
2021/04/08 12:52:59;;;;;;;3.27;2.27;;;10.20;50.30;;;;;;5033889;28;20438;-78
2021/04/08 12:55:27;;;;;;;2.70;2.50;;;10.10;49.90;;;;;;5033829;28;20443;-80
2021/04/08 12:57:54;;;;;;;2.70;2.27;;;10.20;49.80;;;;;;5033565;28;20945;-80
2021/04/08 13:00:21;;;;;;;3.53;2.43;;;10.10;48.40;;;;;;5033477;28;20525;-80
2021/04/08 13:02:48;;;;;;;2.50;2.30;;;10.20;49.90;;;;;;5033723;28;20458;-80
2021/04/08 13:05:15;;;;;;;2.60;2.40;;;10.20;50.90;;;;;;5033679;28;20451;-80
2021/04/08 13:07:41;;;;;;;2.40;2.20;;;9.90;50.70;;;;;;5032471;28;20435;-81
2021/04/08 13:10:08;;;;;;;2.93;2.50;;;9.90;52.90;;;;;;5033503;28;20497;-80
2021/04/08 13:12:35;;;;;;;4.87;2.60;;;9.90;52.50;;;;;;5033543;28;20446;-80
2021/04/08 13:15:01;;;;;;;3.57;2.50;;;10.00;51.60;;;;;;5033525;28;20451;-80
2021/04/08 13:17:27;;;;;;;3.43;2.43;;;9.90;52.30;;;;;;5033158;28;20954;-80
2021/04/08 13:19:53;;;;;;;2.57;2.37;;;10.00;51.30;;;;;;5033941;28;20423;-80
2021/04/08 13:22:21;;;;;;;2.70;2.50;;;10.10;51.20;;;;;;5033188;28;20577;-80